createdAt,value
2023-01-22T01:16:34.652Z,101348.72
2023-01-22T01:21:50.579Z,101350.32
2023-01-22T01:24:23.397Z,101351.47
2023-01-22T01:26:56.059Z,101353.63
2023-01-22T01:29:28.376Z,101358.94
2023-01-22T01:32:01.664Z,101362.73
2023-01-22T01:34:34.620Z,101361.75
2023-01-22T01:37:07.378Z,101362.67
2023-01-22T01:39:40.163Z,101363.09
2023-01-22T01:42:13.520Z,101366.17
2023-01-22T01:44:46.405Z,101363.88
2023-01-22T01:47:36.081Z,101367.77
2023-01-22T01:50:09.019Z,101366.30
2023-01-22T01:52:41.680Z,101364.42
2023-01-22T01:55:17.930Z,101363.08
2023-01-22T01:57:50.358Z,101367.11
2023-01-22T02:00:22.991Z,101368.20
2023-01-22T02:02:55.329Z,101368.59
2023-01-22T02:05:27.929Z,101370.19
2023-01-22T02:08:00.373Z,101368.32
2023-01-22T02:10:33.119Z,101365.08
2023-01-22T02:13:11.140Z,101374.48
2023-01-22T02:15:44.524Z,101376.50
2023-01-22T02:18:17.128Z,101378.38
2023-01-22T02:20:58.608Z,101374.48
2023-01-22T02:23:32.999Z,101385.66
2023-01-22T02:26:04.894Z,101385.22
2023-01-22T02:28:37.050Z,101386.05
2023-01-22T02:31:10.060Z,101384.38
2023-01-22T02:33:42.597Z,101389.39
2023-01-22T02:36:16.436Z,101387.79
2023-01-22T02:38:49.178Z,101386.58
2023-01-22T02:41:21.677Z,101396.93
2023-01-22T02:43:54.235Z,101403.25
2023-01-22T02:46:30.692Z,101395.66
2023-01-22T02:49:03.518Z,101397.52
2023-01-22T02:51:37.342Z,101399.48
2023-01-22T02:54:10.534Z,101405.25
2023-01-22T02:56:43.213Z,101400.27
2023-01-22T02:59:16.042Z,101399.36
2023-01-22T03:01:48.763Z,101405.05
2023-01-22T03:04:21.351Z,101409.55
2023-01-22T03:06:54.250Z,101402.05
2023-01-22T03:09:27.560Z,101404.30
2023-01-22T03:12:01.213Z,101406.20
2023-01-22T03:14:53.810Z,101409.84
2023-01-22T03:17:44.307Z,101412.52
2023-01-22T03:20:34.545Z,101408.95
2023-01-22T03:23:06.968Z,101413.77
2023-01-22T03:25:39.991Z,101412.52
2023-01-22T03:28:14.255Z,101419.24
2023-01-22T03:30:46.887Z,101424.05
2023-01-22T03:33:19.376Z,101423.10
2023-01-22T03:35:53.527Z,101425.33
2023-01-22T03:38:25.968Z,101427.00
2023-01-22T03:41:08.397Z,101422.84
2023-01-22T03:43:41.170Z,101436.08
2023-01-22T03:46:17.146Z,101437.16
2023-01-22T03:48:52.564Z,101436.83
2023-01-22T03:51:24.608Z,101433.59
2023-01-22T03:53:56.859Z,101436.53
2023-01-22T03:56:31.141Z,101441.58
2023-01-22T03:59:05.480Z,101439.91
2023-01-22T04:01:38.398Z,101444.47
2023-01-22T04:04:11.607Z,101437.88
2023-01-22T04:06:45.983Z,101447.58
2023-01-22T04:09:18.565Z,101454.95
2023-01-22T04:11:52.082Z,101458.19
2023-01-22T04:14:24.483Z,101459.53
2023-01-22T04:17:04.738Z,101469.20
2023-01-22T04:19:54.335Z,101465.17
2023-01-22T04:22:43.509Z,101464.62
2023-01-22T04:25:17.369Z,101474.45
2023-01-22T04:27:49.898Z,101474.31
2023-01-22T04:30:24.169Z,101476.05
2023-01-22T04:32:59.680Z,101482.64
2023-01-22T04:35:34.010Z,101483.98
2023-01-22T04:38:07.972Z,101482.64
2023-01-22T04:40:41.750Z,101492.05
2023-01-22T04:43:14.441Z,101491.66
2023-01-22T04:45:50.410Z,101495.32
2023-01-22T04:48:24.816Z,101500.23
2023-01-22T04:50:57.500Z,101497.55
2023-01-22T04:53:32.163Z,101497.81
2023-01-22T04:56:05.419Z,101498.08
2023-01-22T04:58:40.038Z,101505.22
2023-01-22T05:01:13.089Z,101502.54
2023-01-22T05:03:45.772Z,101507.48
2023-01-22T05:06:19.786Z,101516.17
2023-01-22T05:08:52.587Z,101514.95
2023-01-22T05:11:26.225Z,101513.80
2023-01-22T05:14:00.389Z,101514.32
2023-01-22T05:16:33.206Z,101513.86
2023-01-22T05:19:06.038Z,101515.02
2023-01-22T05:21:38.528Z,101511.94
2023-01-22T05:24:12.087Z,101526.03
2023-01-22T05:26:45.148Z,101519.70
2023-01-22T05:29:19.844Z,101529.93
2023-01-22T05:32:13.071Z,101530.75
2023-01-22T05:34:48.077Z,101528.19
2023-01-22T05:37:20.477Z,101531.80
2023-01-22T05:39:53.116Z,101541.36
2023-01-22T05:42:25.846Z,101539.72
2023-01-22T05:44:59.055Z,101552.37
2023-01-22T05:47:31.806Z,101545.77
2023-01-22T05:50:10.056Z,101553.90
2023-01-22T05:52:42.494Z,101560.61
2023-01-22T05:55:15.405Z,101556.25
2023-01-22T05:57:48.756Z,101564.83
2023-01-22T06:00:23.349Z,101569.31
2023-01-22T06:03:01.151Z,101567.24
2023-01-22T06:05:35.766Z,101573.41
2023-01-22T06:08:10.815Z,101578.26
2023-01-22T06:10:48.143Z,101585.86
2023-01-22T06:13:21.018Z,101593.98
2023-01-22T06:15:55.289Z,101590.80
2023-01-22T06:18:32.546Z,101593.80
2023-01-22T06:21:10.098Z,101591.57
2023-01-22T06:23:42.689Z,101607.14
2023-01-22T06:26:15.282Z,101623.26
2023-01-22T06:28:47.984Z,101619.33
2023-01-22T06:31:21.036Z,101624.54
2023-01-22T06:33:55.034Z,101626.83
2023-01-22T06:36:28.384Z,101631.25
2023-01-22T06:39:01.015Z,101632.08
2023-01-22T06:41:44.453Z,101638.16
2023-01-22T06:44:19.194Z,101627.41
2023-01-22T06:46:52.171Z,101635.81
2023-01-22T06:49:26.312Z,101638.38
2023-01-22T06:51:59.412Z,101641.91
2023-01-22T06:54:32.877Z,101642.41
2023-01-22T06:57:05.836Z,101649.64
2023-01-22T06:59:39.959Z,101639.56
2023-01-22T07:02:19.914Z,101641.03
2023-01-22T07:04:52.497Z,101648.59
2023-01-22T07:07:25.212Z,101649.09
2023-01-22T07:09:57.920Z,101651.07
2023-01-22T07:12:31.649Z,101650.61
2023-01-22T07:15:07.072Z,101651.63
2023-01-22T07:17:39.764Z,101655.28
2023-01-22T07:20:13.261Z,101655.89
2023-01-22T07:22:46.050Z,101660.89
2023-01-22T07:25:19.998Z,101657.98
2023-01-22T07:27:52.496Z,101655.36
2023-01-22T07:30:24.981Z,101660.73
2023-01-22T07:33:02.582Z,101663.84
2023-01-22T07:35:35.184Z,101663.91
2023-01-22T07:38:07.679Z,101661.40
2023-01-22T07:40:40.434Z,101662.56
2023-01-22T07:43:14.473Z,101668.84
2023-01-22T07:45:47.082Z,101670.68
2023-01-22T07:48:19.596Z,101669.40
2023-01-22T07:50:52.150Z,101672.48
2023-01-22T07:53:24.457Z,101672.99
2023-01-22T07:55:57.431Z,101676.17
2023-01-22T07:58:30.022Z,101672.54
2023-01-22T08:01:04.087Z,101673.42
2023-01-22T08:03:37.994Z,101678.68
2023-01-22T08:06:15.905Z,101674.53
2023-01-22T08:08:48.634Z,101675.76
2023-01-22T08:11:21.180Z,101686.35
2023-01-22T08:13:55.037Z,101684.44
2023-01-22T08:16:27.638Z,101677.44
2023-01-22T08:19:00.199Z,101689.59
2023-01-22T08:21:34.080Z,101690.53
2023-01-22T08:24:08.403Z,101690.94
2023-01-22T08:26:41.009Z,101697.47
2023-01-22T08:29:13.484Z,101695.24
2023-01-22T08:31:46.241Z,101704.53
2023-01-22T08:34:19.013Z,101707.89
2023-01-22T08:36:51.474Z,101704.97
2023-01-22T08:39:23.966Z,101708.88
2023-01-22T08:41:58.172Z,101712.79
2023-01-22T08:44:30.571Z,101711.78
2023-01-22T08:47:03.922Z,101710.81
2023-01-22T08:49:36.646Z,101717.47
2023-01-22T08:52:09.027Z,101711.84
2023-01-22T08:54:42.748Z,101711.94
2023-01-22T08:57:15.511Z,101715.08
2023-01-22T09:00:00.436Z,101713.46
2023-01-22T09:02:23.164Z,101714.48
2023-01-22T09:04:55.687Z,101707.89
2023-01-22T09:07:28.161Z,101715.61
2023-01-22T09:10:00.518Z,101712.53
2023-01-22T09:12:33.312Z,101723.95
2023-01-22T09:15:06.067Z,101724.78
2023-01-22T09:17:39.984Z,101733.73
2023-01-22T09:20:12.685Z,101729.94
2023-01-22T09:22:47.481Z,101729.98
2023-01-22T09:25:20.697Z,101724.56
2023-01-22T09:28:15.158Z,101729.81
2023-01-22T09:30:47.526Z,101731.22
2023-01-22T09:33:20.079Z,101734.08
2023-01-22T09:35:52.556Z,101738.63
2023-01-22T09:38:24.958Z,101736.37
2023-01-22T09:40:58.759Z,101736.65
2023-01-22T09:43:51.110Z,101732.62
2023-01-22T09:46:37.229Z,101731.79
2023-01-22T09:49:22.439Z,101734.08
2023-01-22T09:51:57.921Z,101744.83
2023-01-22T09:54:31.163Z,101743.54
2023-01-22T09:57:07.285Z,101735.48
2023-01-22T09:59:50.222Z,101747.11
2023-01-22T10:02:33.786Z,101739.11
2023-01-22T10:05:17.093Z,101735.88
2023-01-22T10:07:58.874Z,101740.13
2023-01-22T10:10:31.794Z,101739.67
2023-01-22T10:13:14.234Z,101733.56
2023-01-22T10:15:47.002Z,101734.48
2023-01-22T10:18:56.445Z,101734.48
2023-01-22T10:21:37.164Z,101732.16
2023-01-22T10:24:13.235Z,101737.44
2023-01-22T10:26:54.790Z,101736.65
2023-01-22T10:29:37.374Z,101741.56
2023-01-22T10:32:30.186Z,101741.47
2023-01-22T10:35:20.772Z,101740.07
2023-01-22T10:37:56.201Z,101735.19
2023-01-22T10:40:39.063Z,101741.36
2023-01-22T10:43:18.536Z,101742.30
2023-01-22T10:45:56.300Z,101738.94
2023-01-22T10:48:28.831Z,101740.80
2023-01-22T10:51:14.212Z,101739.17
2023-01-22T10:56:54.668Z,101748.34
2023-01-22T10:59:29.628Z,101752.72
2023-01-22T11:02:14.914Z,101752.72
2023-01-22T11:04:47.524Z,101757.20
2023-01-22T11:07:27.785Z,101748.86
2023-01-22T11:10:33.527Z,101749.31
2023-01-22T11:13:29.816Z,101750.66
2023-01-22T11:16:11.111Z,101749.97
2023-01-22T11:19:00.646Z,101746.05
2023-01-22T11:21:40.876Z,101744.66
2023-01-22T11:24:24.347Z,101740.91
2023-01-22T11:27:18.585Z,101743.55
2023-01-22T11:30:30.881Z,101740.91
2023-01-22T11:33:44.869Z,101740.85
2023-01-22T11:36:37.354Z,101739.11
2023-01-22T11:39:40.385Z,101739.17
2023-01-22T11:42:29.398Z,101737.88
2023-01-22T11:45:33.412Z,101741.03
2023-01-22T11:49:02.192Z,101750.48
2023-01-22T11:51:58.017Z,101745.22
2023-01-22T11:55:21.327Z,101751.20
2023-01-22T11:58:33.614Z,101752.65
2023-01-22T12:01:45.832Z,101754.34
2023-01-22T12:04:48.494Z,101754.05
2023-01-22T12:07:56.289Z,101759.41
2023-01-22T12:10:48.231Z,101753.80
2023-01-22T12:13:31.232Z,101766.09
2023-01-22T12:16:11.744Z,101764.03
2023-01-22T12:19:10.182Z,101769.39
2023-01-22T12:21:57.501Z,101763.73
2023-01-22T12:24:49.482Z,101760.80
2023-01-22T12:27:35.481Z,101759.47
2023-01-22T12:30:33.643Z,101771.89
2023-01-22T12:33:06.236Z,101767.03
2023-01-22T12:35:39.064Z,101773.84
2023-01-22T12:38:44.266Z,101765.45
2023-01-22T12:41:24.552Z,101765.50
2023-01-22T12:44:00.218Z,101776.49
2023-01-22T12:46:43.440Z,101778.42
2023-01-22T12:49:16.980Z,101782.09
2023-01-22T12:51:52.249Z,101785.63
2023-01-22T12:54:36.065Z,101791.53
2023-01-22T12:57:20.750Z,101795.71
2023-01-22T12:59:57.832Z,101797.55
2023-01-22T13:02:38.025Z,101804.75
2023-01-22T13:05:19.976Z,101809.27
2023-01-22T13:08:04.572Z,101804.84
2023-01-22T13:10:38.224Z,101816.13
2023-01-22T13:13:21.547Z,101816.37
2023-01-22T13:15:57.994Z,101814.83
2023-01-22T13:18:33.200Z,101817.25
2023-01-22T13:21:08.597Z,101816.41
2023-01-22T13:23:47.495Z,101813.23
2023-01-22T13:26:27.509Z,101818.55
2023-01-22T13:29:06.504Z,101826.59
2023-01-22T13:31:39.917Z,101819.05
2023-01-22T13:34:12.227Z,101822.11
2023-01-22T13:36:49.194Z,101819.34
2023-01-22T13:39:31.134Z,101818.95
2023-01-22T13:42:05.372Z,101821.82
2023-01-22T13:44:45.084Z,101829.01
2023-01-22T13:47:33.492Z,101831.11
2023-01-22T13:50:06.805Z,101827.92
2023-01-22T13:52:39.350Z,101830.20
2023-01-22T13:55:18.482Z,101837.05
2023-01-22T13:57:56.951Z,101836.70
2023-01-22T14:00:35.626Z,101841.45
2023-01-22T14:03:21.709Z,101845.92
2023-01-22T14:06:11.172Z,101842.93
2023-01-22T14:08:48.870Z,101855.04
2023-01-22T14:11:21.243Z,101861.24
2023-01-22T14:13:55.161Z,101867.45
2023-01-22T14:16:27.870Z,101871.48
2023-01-22T14:19:00.463Z,101870.89
2023-01-22T14:21:35.298Z,101867.80
2023-01-22T14:24:08.820Z,101872.64
2023-01-22T14:26:41.186Z,101874.91
2023-01-22T14:29:13.662Z,101875.59
2023-01-22T14:31:46.138Z,101878.62
2023-01-22T14:34:18.837Z,101884.02
2023-01-22T14:36:51.562Z,101876.52
2023-01-22T14:39:24.044Z,101888.13
2023-01-22T14:41:56.598Z,101890.86
2023-01-22T14:44:30.339Z,101893.17
2023-01-22T14:47:04.341Z,101894.11
2023-01-22T14:49:38.087Z,101889.65
2023-01-22T14:52:11.585Z,101901.25
2023-01-22T14:54:44.502Z,101893.58
2023-01-22T14:57:17.661Z,101898.36
2023-01-22T14:59:50.080Z,101895.55
2023-01-22T15:02:24.282Z,101898.14
2023-01-22T15:04:57.922Z,101904.27
2023-01-22T15:07:30.187Z,101891.89
2023-01-22T15:10:04.064Z,101899.70
2023-01-22T15:12:37.210Z,101900.23
2023-01-22T15:15:10.787Z,101903.98
2023-01-22T15:17:43.537Z,101904.15
2023-01-22T15:20:15.939Z,101899.77
2023-01-22T15:22:49.944Z,101905.17
2023-01-22T15:25:22.264Z,101904.81
2023-01-22T15:27:54.691Z,101917.16
2023-01-22T15:30:28.007Z,101912.37
2023-01-22T15:33:00.674Z,101918.66
2023-01-22T15:35:33.439Z,101918.25
2023-01-22T15:38:05.867Z,101925.03
2023-01-22T15:40:38.241Z,101922.92
2023-01-22T15:43:11.047Z,101925.27
2023-01-22T15:45:43.434Z,101922.19
2023-01-22T15:48:16.391Z,101927.17
2023-01-22T15:50:48.935Z,101925.02
2023-01-22T15:53:21.458Z,101926.28
2023-01-22T15:55:54.768Z,101927.58
2023-01-22T15:58:27.255Z,101929.73
2023-01-22T16:00:59.852Z,101940.81
2023-01-22T16:03:32.439Z,101932.89
2023-01-22T17:35:02.457Z,101997.64
2023-01-22T17:37:35.045Z,102000.16
2023-01-22T17:40:09.610Z,102001.30
2023-01-22T17:42:42.383Z,102011.41
2023-01-22T17:45:14.916Z,102011.92
2023-01-22T17:47:47.495Z,102007.53
2023-01-22T17:50:19.948Z,102013.36
2023-01-22T17:52:52.656Z,102007.66
2023-01-22T17:55:26.905Z,102014.76
2023-01-22T17:58:00.033Z,102021.38
2023-01-22T18:00:34.346Z,102017.37
2023-01-22T18:03:07.131Z,102014.22
2023-01-22T18:05:39.541Z,102023.09
2023-01-22T18:08:12.100Z,102021.31
2023-01-22T18:10:45.798Z,102021.77
2023-01-22T18:13:18.419Z,102022.23
2023-01-22T18:15:52.279Z,102031.22
2023-01-22T18:18:25.155Z,102027.23
2023-01-22T18:20:57.685Z,102029.95
2023-01-22T18:23:30.095Z,102035.20
2023-01-22T18:26:05.822Z,102030.23
2023-01-22T18:28:38.205Z,102033.31
2023-01-22T18:31:16.246Z,102030.26
2023-01-22T18:33:48.788Z,102032.59
2023-01-22T18:36:24.648Z,102030.84
2023-01-22T18:39:01.563Z,102044.75
2023-01-22T18:41:34.242Z,102040.80
2023-01-22T18:44:07.729Z,102041.72
2023-01-22T18:46:41.865Z,102044.75
2023-01-22T18:49:19.145Z,102040.33
2023-01-22T18:51:51.671Z,102048.79
2023-01-22T18:54:24.436Z,102056.43
2023-01-22T18:56:57.366Z,102041.28
2023-01-22T18:59:29.780Z,102051.43
2023-01-22T19:02:02.498Z,102049.14
2023-01-22T19:04:35.083Z,102042.42
2023-01-22T19:07:07.547Z,102045.16
2023-01-22T19:09:41.392Z,102051.88
2023-01-22T19:12:15.536Z,102053.69
2023-01-22T19:14:49.143Z,102055.86
2023-01-22T19:17:21.787Z,102051.88
2023-01-22T19:19:54.169Z,102056.34
2023-01-22T19:22:26.713Z,102064.77
2023-01-22T19:24:59.273Z,102056.78
2023-01-22T19:27:32.247Z,102063.44
2023-01-22T19:30:07.523Z,102054.45
2023-01-22T19:32:40.184Z,102062.00
2023-01-22T19:35:12.809Z,102059.39
2023-01-22T19:37:46.121Z,102063.44
2023-01-22T19:40:19.390Z,102070.22
2023-01-22T19:42:51.730Z,102070.22
2023-01-22T19:45:24.179Z,102065.34
2023-01-22T19:47:57.070Z,102070.24
2023-01-22T19:50:29.713Z,102064.86
2023-01-22T19:53:02.062Z,102071.11
2023-01-22T19:55:39.435Z,102071.58
2023-01-22T19:58:11.924Z,102072.56
2023-01-22T20:00:44.632Z,102077.87
2023-01-22T20:03:17.369Z,102069.29
2023-01-22T20:05:49.940Z,102066.52
2023-01-22T20:08:22.750Z,102072.25
2023-01-22T20:11:01.732Z,102065.53
2023-01-22T20:13:35.289Z,102067.77
2023-01-22T20:16:08.330Z,102062.42
2023-01-22T20:18:40.781Z,102066.02
2023-01-22T20:21:14.611Z,102070.50
2023-01-22T20:23:48.517Z,102067.45
2023-01-22T20:26:22.832Z,102068.84
2023-01-22T20:28:55.745Z,102070.69
2023-01-22T20:31:28.340Z,102070.69
2023-01-22T20:34:03.162Z,102067.13
2023-01-22T20:36:36.463Z,102072.02
2023-01-22T20:39:08.837Z,102072.92
2023-01-22T20:41:41.819Z,102080.44
2023-01-22T20:44:14.734Z,102085.68
2023-01-22T20:46:48.984Z,102088.45
2023-01-22T20:49:21.361Z,102089.88
2023-01-22T20:51:53.975Z,102094.45
2023-01-22T20:54:28.050Z,102084.72
2023-01-22T20:57:01.839Z,102094.10
2023-01-22T20:59:34.209Z,102095.08
2023-01-22T21:02:06.630Z,102089.86
2023-01-22T21:04:39.612Z,102087.59
2023-01-22T21:07:12.259Z,102091.58
2023-01-22T21:09:44.901Z,102094.64
2023-01-22T21:12:17.879Z,102102.15
2023-01-22T21:14:56.254Z,102101.17
2023-01-22T21:17:28.784Z,102096.27
2023-01-22T21:20:01.369Z,102101.50
2023-01-22T21:22:34.955Z,102100.16
2023-01-22T21:25:07.943Z,102100.61
2023-01-22T21:27:41.269Z,102099.74
2023-01-22T21:30:14.341Z,102101.08
2023-01-22T21:32:52.390Z,102100.13
2023-01-22T21:35:24.672Z,102102.80
2023-01-22T21:37:57.993Z,102102.36
2023-01-22T21:40:31.543Z,102094.75
2023-01-22T21:43:21.621Z,102099.15
2023-01-22T21:46:12.939Z,102095.52
2023-01-22T21:48:46.049Z,102097.81
2023-01-22T21:51:18.483Z,102094.24
2023-01-22T21:53:50.940Z,102093.83
2023-01-22T21:56:23.497Z,102098.67
2023-01-22T21:58:56.657Z,102094.66
2023-01-22T22:01:31.690Z,102094.69
